Time;durP1;ratioP1;P1;durP2;ratioP2;P2;SDS_P1;SDS_P2;PMS_P1;PMS_P2;Temp;Humidity;BMP_temperature;BMP_pressure;BME280_temperature;BME280_humidity;BME280_pressure;Samples;Min_cycle;Max_cycle;Signal;HPM_P1;HPM_P2
2021/01/24 00:00:08;;;;;;;37.83;21.33;;;;;;;7.45;83.79;100293.03;1781273;80;21827;-54
2021/01/24 00:03:16;;;;;;;42.08;20.95;;;;;;;7.47;83.87;100289.13;1781058;80;21811;-54
2021/01/24 00:06:23;;;;;;;36.60;19.98;;;;;;;7.49;83.78;100285.75;1781167;80;21350;-54
2021/01/24 00:09:29;;;;;;;40.23;19.37;;;;;;;7.49;83.71;100283.52;1781434;80;21370;-55
2021/01/24 00:12:35;;;;;;;38.70;19.52;;;;;;;7.51;83.72;100289.17;1781479;80;21335;-53
2021/01/24 00:15:41;;;;;;;41.02;21.33;;;;;;;7.51;83.65;100285.09;1781320;80;21422;-53
2021/01/24 00:18:45;;;;;;;41.37;23.65;;;;;;;7.51;83.56;100280.14;1781556;80;21871;-53
2021/01/24 00:21:51;;;;;;;41.77;20.72;;;;;;;7.48;83.52;100284.02;1781697;80;21370;-53
2021/01/24 00:24:59;;;;;;;44.18;23.25;;;;;;;7.47;83.53;100273.28;1781549;80;21232;-54
2021/01/24 00:28:04;;;;;;;43.75;23.38;;;;;;;7.41;83.54;100273.92;1781271;80;21918;-55
2021/01/24 00:31:12;;;;;;;50.80;23.55;;;;;;;7.38;83.62;100273.75;1781318;80;21355;-54
2021/01/24 00:34:18;;;;;;;39.67;20.75;;;;;;;7.36;83.79;100275.77;1781378;80;21423;-54
2021/01/24 00:37:24;;;;;;;47.13;22.85;;;;;;;7.34;83.76;100272.87;1781298;80;21851;-54
2021/01/24 00:40:31;;;;;;;47.38;24.12;;;;;;;7.32;83.79;100268.94;1781503;79;21373;-55
2021/01/24 00:43:39;;;;;;;41.90;22.60;;;;;;;7.32;83.72;100258.55;1787047;80;21193;-55
2021/01/24 00:46:45;;;;;;;45.30;24.25;;;;;;;7.32;83.82;100254.46;1787046;80;21831;-54
2021/01/24 00:49:52;;;;;;;45.88;22.95;;;;;;;7.37;83.86;100253.48;1787355;80;21704;-54
2021/01/24 00:52:59;;;;;;;41.85;24.25;;;;;;;7.38;83.69;100256.55;1787171;80;21426;-55
2021/01/24 00:56:03;;;;;;;45.23;24.87;;;;;;;7.37;83.61;100252.95;1787072;80;21290;-54
2021/01/24 00:59:09;;;;;;;46.05;22.95;;;;;;;7.39;83.53;100254.16;1758299;80;21284;-54
2021/01/24 01:02:15;;;;;;;48.23;23.27;;;;;;;7.36;83.49;100249.90;1786651;80;21188;-54
2021/01/24 01:05:23;;;;;;;53.20;23.83;;;;;;;7.35;83.43;100244.12;1786505;80;21224;-54
2021/01/24 01:08:29;;;;;;;48.85;22.70;;;;;;;7.32;83.32;100249.88;1786539;80;21354;-53
2021/01/24 01:11:33;;;;;;;49.67;25.08;;;;;;;7.28;83.33;100251.19;1786598;80;21689;-53
2021/01/24 01:14:39;;;;;;;45.58;23.52;;;;;;;7.23;83.39;100260.34;1786521;80;21796;-53
2021/01/24 01:17:44;;;;;;;49.45;23.25;;;;;;;7.22;83.52;100252.33;1800552;79;21220;-53
2021/01/24 01:20:50;;;;;;;41.80;22.77;;;;;;;7.24;83.52;100255.76;1786503;80;21855;-53
2021/01/24 01:23:56;;;;;;;41.28;20.23;;;;;;;7.21;83.49;100251.50;1786643;80;21322;-55
2021/01/24 01:27:02;;;;;;;42.25;22.02;;;;;;;7.19;83.54;100250.79;1786551;80;21413;-55
2021/01/24 01:30:07;;;;;;;42.48;20.95;;;;;;;7.18;83.56;100255.86;1786566;80;21288;-54
2021/01/24 01:33:13;;;;;;;46.35;21.00;;;;;;;7.17;83.58;100250.09;1786726;80;21358;-54
2021/01/24 01:36:20;;;;;;;42.13;19.35;;;;;;;7.16;83.58;100245.66;1786471;80;21863;-53
2021/01/24 01:39:26;;;;;;;38.50;20.88;;;;;;;7.20;83.63;100257.06;1786419;80;21678;-54
2021/01/24 01:42:31;;;;;;;34.23;21.07;;;;;;;7.23;83.55;100248.09;1780189;79;21280;-54
2021/01/24 01:45:41;;;;;;;36.60;19.80;;;;;;;7.24;83.45;100251.67;1799364;79;21213;-54
2021/01/24 01:48:47;;;;;;;36.00;19.02;;;;;;;7.24;83.44;100251.17;1798702;80;21196;-54
2021/01/24 01:51:57;;;;;;;43.38;19.05;;;;;;;7.27;83.40;100248.63;1798688;79;21358;-53
2021/01/24 01:55:02;;;;;;;44.30;19.92;;;;;;;7.28;83.35;100258.00;1799040;80;21232;-53
2021/01/24 01:58:09;;;;;;;34.25;19.62;;;;;;;7.29;83.30;100247.98;1799144;80;21188;-54
2021/01/24 02:01:26;;;;;;;41.02;18.55;;;;;;;7.32;83.15;100247.16;1799282;79;21181;-55
2021/01/24 02:04:37;;;;;;;43.85;18.80;;;;;;;7.29;82.95;100242.00;1799195;80;21366;-54
2021/01/24 02:08:11;;;;;;;32.58;18.05;;;;;;;7.26;82.94;100239.59;1799110;80;21225;-54
2021/01/24 02:11:30;;;;;;;32.67;17.90;;;;;;;7.27;82.95;100244.55;1799136;80;21196;-53
2021/01/24 02:14:41;;;;;;;29.65;17.07;;;;;;;7.29;82.94;100247.45;1796080;78;21744;-53
2021/01/24 02:17:51;;;;;;;34.90;17.10;;;;;;;7.31;82.83;100252.73;1799371;80;21329;-53
2021/01/24 02:21:37;;;;;;;32.45;17.48;;;;;;;7.30;82.87;100250.54;1799050;78;21458;-53
2021/01/24 02:24:48;;;;;;;33.67;18.25;;;;;;;7.32;82.87;100250.37;1799128;80;21366;-55
2021/01/24 02:28:07;;;;;;;32.85;17.90;;;;;;;7.31;82.80;100247.28;1799192;80;21257;-55
2021/01/24 02:31:11;;;;;;;29.25;16.95;;;;;;;7.30;82.78;100243.73;1792506;80;21355;-55
2021/01/24 02:34:17;;;;;;;29.87;16.85;;;;;;;7.32;82.67;100238.98;1799061;80;21313;-55
2021/01/24 02:37:23;;;;;;;30.70;16.62;;;;;;;7.31;82.56;100244.07;1799175;80;21378;-55
2021/01/24 02:40:28;;;;;;;34.13;17.10;;;;;;;7.32;82.46;100252.61;1798994;78;21193;-55
2021/01/24 02:43:33;;;;;;;31.25;15.45;;;;;;;7.30;82.35;100245.09;1798723;79;21259;-53
2021/01/24 02:46:39;;;;;;;30.35;16.95;;;;;;;7.31;82.37;100248.16;1771861;81;21201;-53
2021/01/24 02:49:45;;;;;;;30.75;15.15;;;;;;;7.30;82.14;100251.90;1741740;81;21429;-54
2021/01/24 02:52:50;;;;;;;30.72;15.90;;;;;;;7.27;82.13;100250.86;1772329;80;21339;-54
2021/01/24 02:55:56;;;;;;;27.93;15.08;;;;;;;7.22;82.07;100260.00;1772889;80;21370;-55
2021/01/24 02:59:01;;;;;;;29.92;14.05;;;;;;;7.13;82.19;100251.42;1772131;80;21426;-54
2021/01/24 03:02:06;;;;;;;33.58;15.32;;;;;;;7.08;82.35;100249.67;1775379;80;21323;-54
2021/01/24 03:05:13;;;;;;;29.35;15.13;;;;;;;7.10;82.48;100255.80;1772525;80;21359;-54
2021/01/24 03:08:18;;;;;;;26.68;14.33;;;;;;;7.10;82.41;100264.48;1772381;80;21374;-55
2021/01/24 03:11:25;;;;;;;32.58;15.03;;;;;;;7.08;82.41;100264.64;1772945;80;21415;-54
2021/01/24 03:14:32;;;;;;;23.35;13.25;;;;;;;7.08;82.40;100266.50;1771859;80;21414;-55
2021/01/24 03:17:40;;;;;;;27.42;14.40;;;;;;;7.06;82.39;100263.08;1775182;80;21398;-54
2021/01/24 03:20:48;;;;;;;24.10;14.38;;;;;;;7.03;82.35;100257.45;1772146;80;21220;-54
2021/01/24 03:23:55;;;;;;;30.15;14.95;;;;;;;6.99;82.37;100258.75;1771727;80;21390;-55
2021/01/24 03:27:01;;;;;;;28.45;14.87;;;;;;;6.99;82.42;100251.95;1771854;80;21245;-55
2021/01/24 03:30:07;;;;;;;25.55;15.83;;;;;;;6.99;82.43;100255.20;1772908;80;21417;-54
2021/01/24 03:33:13;;;;;;;30.52;15.00;;;;;;;7.00;82.45;100253.69;1772267;80;21399;-54
2021/01/24 03:36:19;;;;;;;26.35;15.30;;;;;;;6.99;82.39;100254.67;1772559;80;21197;-53
2021/01/24 03:39:25;;;;;;;27.07;14.75;;;;;;;6.97;82.35;100252.64;1772410;80;21402;-54
2021/01/24 03:42:32;;;;;;;28.15;13.30;;;;;;;6.99;82.30;100265.56;1772697;80;21335;-53
2021/01/24 03:45:38;;;;;;;27.05;14.00;;;;;;;6.99;82.16;100256.56;1772206;80;21189;-53
2021/01/24 03:48:43;;;;;;;21.97;13.43;;;;;;;6.99;82.02;100263.37;1771477;80;21231;-54
2021/01/24 03:51:49;;;;;;;22.07;13.05;;;;;;;6.98;81.92;100272.02;1771573;80;21189;-54
2021/01/24 03:54:55;;;;;;;22.90;12.90;;;;;;;7.00;81.79;100282.26;1771006;81;21307;-54
2021/01/24 03:58:02;;;;;;;23.12;13.08;;;;;;;7.07;81.72;100281.97;1771089;80;21591;-54
2021/01/24 04:01:08;;;;;;;16.97;11.75;;;;;;;7.07;81.41;100283.33;1774177;80;21349;-54
2021/01/24 04:04:15;;;;;;;18.02;12.13;;;;;;;7.08;81.14;100279.61;1770788;81;21256;-54
2021/01/24 04:07:20;;;;;;;23.77;12.65;;;;;;;7.02;80.95;100270.72;1770989;81;21243;-54
2021/01/24 04:10:27;;;;;;;24.18;12.68;;;;;;;7.01;80.78;100274.92;1774424;80;21268;-54
2021/01/24 04:13:37;;;;;;;18.57;11.97;;;;;;;6.95;80.63;100266.89;1771473;81;21200;-54
2021/01/24 04:16:42;;;;;;;20.85;11.93;;;;;;;6.95;80.47;100276.92;1771389;81;21204;-54
2021/01/24 04:19:47;;;;;;;19.35;12.35;;;;;;;6.90;80.18;100273.80;1774544;80;21244;-54
2021/01/24 04:22:55;;;;;;;21.35;12.65;;;;;;;6.82;80.23;100273.75;1771321;81;21211;-56
2021/01/24 04:26:04;;;;;;;20.55;11.53;;;;;;;6.77;80.09;100274.19;1771351;80;21197;-55
2021/01/24 04:29:10;;;;;;;21.55;11.88;;;;;;;6.70;80.04;100271.75;1771441;81;21192;-54
2021/01/24 04:32:16;;;;;;;19.73;12.15;;;;;;;6.70;80.11;100270.39;1771426;81;21211;-54
2021/01/24 04:35:22;;;;;;;22.00;12.60;;;;;;;6.74;80.00;100275.86;1771425;81;21224;-55
2021/01/24 04:38:28;;;;;;;21.17;12.45;;;;;;;6.76;79.94;100273.84;1774639;80;21184;-55
2021/01/24 04:41:34;;;;;;;23.52;13.05;;;;;;;6.78;79.83;100278.64;1771343;81;21193;-54
2021/01/24 04:44:39;;;;;;;20.05;12.45;;;;;;;6.77;79.66;100270.63;1771340;81;21248;-55
2021/01/24 04:47:50;;;;;;;22.25;12.95;;;;;;;6.75;79.62;100278.08;1782831;80;21359;-54
2021/01/24 04:50:56;;;;;;;21.45;11.85;;;;;;;6.72;79.48;100279.75;1782918;80;21282;-54
2021/01/24 04:54:00;;;;;;;22.58;13.03;;;;;;;6.68;79.44;100281.92;1782955;80;21201;-53
2021/01/24 04:57:09;;;;;;;18.12;11.70;;;;;;;6.66;79.48;100273.05;1782921;80;21239;-55
2021/01/24 05:00:18;;;;;;;23.80;13.72;;;;;;;6.69;79.35;100283.62;1758484;80;21216;-55
2021/01/24 05:03:24;;;;;;;21.35;13.88;;;;;;;6.66;79.28;100285.28;1782913;80;21327;-55
2021/01/24 05:06:29;;;;;;;21.87;13.45;;;;;;;6.60;79.16;100289.98;1783151;80;21323;-55
2021/01/24 05:09:36;;;;;;;22.62;13.03;;;;;;;6.60;79.17;100289.98;1782976;80;21211;-55
2021/01/24 05:12:42;;;;;;;23.42;13.93;;;;;;;6.60;79.07;100288.63;1783050;80;21938;-54
2021/01/24 05:15:48;;;;;;;20.43;11.75;;;;;;;6.56;79.09;100294.03;1782953;80;21286;-55
2021/01/24 05:19:06;;;;;;;20.27;13.48;;;;;;;6.57;78.98;100283.50;1782978;80;21239;-54
2021/01/24 05:22:12;;;;;;;20.60;11.75;;;;;;;6.57;79.04;100301.17;1759093;80;21208;-54
2021/01/24 05:25:18;;;;;;;19.07;11.85;;;;;;;6.61;78.91;100296.30;1782857;80;21262;-53
2021/01/24 05:28:31;;;;;;;21.85;12.28;;;;;;;6.60;78.66;100292.70;1758291;80;21390;-55
2021/01/24 05:31:37;;;;;;;18.85;12.35;;;;;;;6.57;78.70;100297.09;1782983;80;21362;-54
2021/01/24 05:34:43;;;;;;;18.32;11.90;;;;;;;6.62;78.78;100292.55;1757468;80;21281;-54
2021/01/24 05:37:52;;;;;;;18.52;12.53;;;;;;;6.61;78.54;100301.20;1782790;80;21315;-54
2021/01/24 05:40:59;;;;;;;23.52;11.25;;;;;;;6.61;78.51;100293.05;1782808;80;21402;-54
2021/01/24 05:44:05;;;;;;;17.57;11.88;;;;;;;6.62;78.51;100289.34;1782890;80;21279;-54
2021/01/24 05:47:11;;;;;;;19.17;11.70;;;;;;;6.65;78.40;100292.24;1779737;78;21465;-54
2021/01/24 05:50:22;;;;;;;17.17;11.43;;;;;;;6.69;78.27;100292.30;1783914;78;21239;-54
2021/01/24 05:53:30;;;;;;;21.65;11.20;;;;;;;6.69;78.15;100291.78;1767237;81;21184;-54
2021/01/24 05:56:35;;;;;;;21.05;12.18;;;;;;;6.67;78.05;100294.31;1751997;81;21318;-55
2021/01/24 05:59:45;;;;;;;24.35;12.25;;;;;;;6.68;78.07;100298.23;1767081;80;21239;-54
2021/01/24 06:02:54;;;;;;;17.40;11.70;;;;;;;6.73;77.99;100299.13;1751673;81;21184;-54
2021/01/24 06:06:00;;;;;;;18.52;10.82;;;;;;;6.75;77.79;100292.55;1767131;80;21370;-54
2021/01/24 06:09:05;;;;;;;21.97;11.75;;;;;;;6.75;77.66;100294.41;1767633;80;21192;-55
2021/01/24 06:12:12;;;;;;;16.85;11.43;;;;;;;6.74;77.56;100303.59;1767505;81;21204;-54
2021/01/24 06:15:18;;;;;;;18.00;11.45;;;;;;;6.74;77.49;100303.59;1767531;80;21350;-54
2021/01/24 06:18:23;;;;;;;18.37;10.90;;;;;;;6.72;77.45;100302.88;1767711;81;21193;-56
2021/01/24 06:21:42;;;;;;;21.80;16.90;;;;;;;6.74;77.39;100300.34;1767622;81;21354;-54
2021/01/24 06:24:52;;;;;;;18.87;13.40;;;;;;;6.79;77.40;100300.73;1767617;80;21354;-55
2021/01/24 06:28:01;;;;;;;16.87;12.07;;;;;;;6.82;77.15;100296.88;1767611;81;21358;-55
2021/01/24 06:31:07;;;;;;;19.27;11.97;;;;;;;6.81;77.09;100299.22;1767645;80;21369;-53
2021/01/24 06:34:14;;;;;;;22.00;12.28;;;;;;;6.80;77.02;100306.52;1767709;80;21196;-54
2021/01/24 06:37:22;;;;;;;24.75;13.08;;;;;;;6.81;76.95;100306.89;1767338;81;21382;-55
2021/01/24 06:40:39;;;;;;;26.80;17.65;;;;;;;6.79;76.87;100306.18;1767616;80;21907;-54
2021/01/24 06:43:50;;;;;;;18.17;12.85;;;;;;;6.83;76.87;100304.87;1767535;81;21353;-55
2021/01/24 06:46:55;;;;;;;24.18;15.80;;;;;;;6.84;76.69;100299.78;1767833;81;21330;-55
2021/01/24 06:50:02;;;;;;;21.73;13.38;;;;;;;6.86;76.58;100307.29;1771429;79;21350;-53
2021/01/24 06:53:27;;;;;;;20.00;13.10;;;;;;;6.88;76.49;100301.16;1771398;80;21299;-54
2021/01/24 06:56:32;;;;;;;22.87;11.57;;;;;;;6.93;76.39;100307.00;1776999;80;21327;-54
2021/01/24 06:59:38;;;;;;;15.68;11.12;;;;;;;6.98;76.16;100298.37;1732999;80;21239;-54
2021/01/24 07:02:46;;;;;;;14.90;10.75;;;;;;;7.02;76.01;100302.52;1770681;81;21322;-54
2021/01/24 07:05:51;;;;;;;15.50;10.40;;;;;;;7.03;75.93;100290.11;1771194;80;21327;-54
2021/01/24 07:08:58;;;;;;;14.95;10.00;;;;;;;7.08;75.82;100296.44;1777344;79;21335;-54
2021/01/24 07:12:07;;;;;;;12.88;8.73;;;;;;;7.12;75.71;100300.05;1749544;82;21466;-54
2021/01/24 07:15:19;;;;;;;16.55;10.28;;;;;;;7.17;75.58;100298.22;1771261;79;21322;-54
2021/01/24 07:18:25;;;;;;;13.72;8.93;;;;;;;7.18;75.39;100295.34;1771305;80;21303;-54
2021/01/24 07:21:32;;;;;;;13.93;9.03;;;;;;;7.26;75.33;100297.30;1777214;80;21204;-54
2021/01/24 07:24:38;;;;;;;15.18;10.93;;;;;;;7.36;75.26;100306.22;1749490;80;21233;-54
2021/01/24 07:27:43;;;;;;;22.42;14.20;;;;;;;7.52;75.16;100299.05;1755398;81;21335;-54
2021/01/24 07:30:48;;;;;;;26.48;16.45;;;;;;;7.68;74.89;100297.44;1771572;80;21442;-54
2021/01/24 07:33:54;;;;;;;21.77;12.75;;;;;;;7.86;74.62;100306.43;1776969;79;21375;-54
2021/01/24 07:37:01;;;;;;;17.50;10.15;;;;;;;8.03;74.28;100298.70;1754255;81;21275;-55
2021/01/24 07:40:06;;;;;;;14.03;9.50;;;;;;;8.13;73.72;100298.08;1777215;79;21785;-55
2021/01/24 07:43:14;;;;;;;16.32;10.35;;;;;;;8.19;73.31;100309.69;1733585;81;21514;-55
2021/01/24 07:46:22;;;;;;;16.07;10.50;;;;;;;8.22;73.06;100303.91;1755699;80;21437;-55
2021/01/24 07:49:27;;;;;;;19.23;10.72;;;;;;;8.17;72.70;100305.77;1771617;79;21172;-55
2021/01/24 07:52:34;;;;;;;13.00;8.98;;;;;;;8.19;72.87;100316.52;1777148;81;21228;-55
2021/01/24 07:55:39;;;;;;;13.22;9.18;;;;;;;8.25;72.64;100312.66;1733670;81;21433;-55
2021/01/24 07:58:47;;;;;;;13.43;9.58;;;;;;;8.27;72.45;100317.95;1771117;81;21910;-54
2021/01/24 08:01:54;;;;;;;14.60;10.48;;;;;;;8.26;72.24;100306.71;1730126;82;21159;-56
2021/01/24 08:05:00;;;;;;;14.98;10.58;;;;;;;8.24;72.29;100317.78;1771659;80;21315;-55
2021/01/24 08:08:08;;;;;;;16.27;11.28;;;;;;;8.22;72.19;100312.95;1776870;81;21211;-55
2021/01/24 08:11:15;;;;;;;19.48;11.78;;;;;;;8.20;72.35;100311.39;1776864;80;21212;-55
2021/01/24 08:14:21;;;;;;;17.45;11.80;;;;;;;8.22;72.37;100317.55;1777159;79;21903;-55
2021/01/24 08:17:26;;;;;;;19.45;12.37;;;;;;;8.24;72.47;100312.33;1754241;81;21459;-54
2021/01/24 08:20:32;;;;;;;20.65;11.75;;;;;;;8.27;72.43;100306.55;1777000;79;21370;-54
2021/01/24 08:23:38;;;;;;;20.30;13.48;;;;;;;8.26;72.29;100323.07;1776812;81;21200;-54
2021/01/24 08:26:44;;;;;;;20.77;11.75;;;;;;;8.21;72.20;100321.30;1733480;81;21700;-54
2021/01/24 08:29:51;;;;;;;17.70;11.50;;;;;;;8.13;72.32;100309.85;1771525;79;21243;-54
2021/01/24 08:32:57;;;;;;;20.40;11.38;;;;;;;8.13;72.51;100307.63;1755205;80;21252;-54
2021/01/24 08:36:26;;;;;;;16.62;11.38;;;;;;;8.15;72.54;100304.23;1788132;79;21393;-55
2021/01/24 08:39:34;;;;;;;17.50;10.65;;;;;;;8.15;72.32;100303.70;1777124;79;21224;-54
2021/01/24 08:42:56;;;;;;;20.70;10.13;;;;;;;8.08;72.53;100311.34;1748970;82;21204;-54
2021/01/24 08:46:22;;;;;;;17.90;10.13;;;;;;;8.05;72.77;100292.58;1771163;79;21401;-54
2021/01/24 08:49:32;;;;;;;19.75;11.78;;;;;;;8.05;72.97;100300.27;1759682;80;21208;-55
2021/01/24 08:52:37;;;;;;;22.05;11.65;;;;;;;8.05;73.07;100294.81;1771030;81;21343;-53
2021/01/24 08:55:56;;;;;;;16.80;11.33;;;;;;;8.06;73.08;100295.14;1743752;82;21284;-54
2021/01/24 08:59:01;;;;;;;20.55;11.68;;;;;;;8.07;73.09;100290.55;1743992;82;21236;-54
2021/01/24 09:02:06;;;;;;;24.18;13.48;;;;;;;8.08;73.11;100289.03;1743896;82;21197;-55
2021/01/24 09:05:16;;;;;;;16.87;11.18;;;;;;;8.09;73.08;100277.59;1773313;81;21239;-54
2021/01/24 09:08:35;;;;;;;19.42;10.98;;;;;;;8.10;73.12;100286.14;1773486;80;21219;-54
2021/01/24 09:11:49;;;;;;;18.48;11.30;;;;;;;8.04;73.23;100272.64;1735851;82;21370;-55
2021/01/24 09:14:55;;;;;;;17.20;11.40;;;;;;;8.05;73.31;100282.55;1735656;82;21326;-54
2021/01/24 09:18:03;;;;;;;24.45;12.35;;;;;;;8.01;73.37;100281.14;1735501;82;21271;-54
2021/01/24 09:21:10;;;;;;;21.07;12.33;;;;;;;8.00;73.32;100284.03;1735799;82;21362;-54
2021/01/24 09:24:16;;;;;;;19.70;11.85;;;;;;;7.96;73.30;100284.85;1735419;82;21243;-54
2021/01/24 09:27:21;;;;;;;18.75;12.03;;;;;;;7.94;73.43;100277.87;1735408;82;21328;-55
2021/01/24 09:30:26;;;;;;;21.50;11.65;;;;;;;7.96;73.28;100271.23;1770498;81;21872;-54
2021/01/24 09:33:32;;;;;;;20.20;13.28;;;;;;;7.98;73.32;100257.44;1743327;82;21687;-54
2021/01/24 09:36:39;;;;;;;19.42;12.88;;;;;;;8.00;73.13;100264.95;1743519;82;21331;-54
2021/01/24 09:39:44;;;;;;;17.37;11.50;;;;;;;7.97;73.16;100262.55;1770282;81;21355;-55
2021/01/24 09:42:51;;;;;;;23.07;12.30;;;;;;;7.99;73.18;100255.08;1770078;81;21196;-55
2021/01/24 09:45:57;;;;;;;30.35;15.38;;;;;;;8.01;73.21;100256.61;1743410;82;21389;-54
2021/01/24 09:49:03;;;;;;;27.20;13.43;;;;;;;8.12;73.23;100254.13;1743350;82;21296;-54
2021/01/24 09:52:08;;;;;;;23.50;12.45;;;;;;;8.22;72.97;100254.33;1771299;79;21381;-54
2021/01/24 09:55:18;;;;;;;25.27;13.32;;;;;;;8.29;72.73;100246.38;1785561;79;21176;-54
2021/01/24 09:58:23;;;;;;;24.85;14.25;;;;;;;8.32;72.53;100249.64;1807003;79;21192;-54
2021/01/24 10:01:29;;;;;;;29.55;15.15;;;;;;;8.32;72.49;100246.91;1807066;79;21219;-54
2021/01/24 10:04:35;;;;;;;30.57;15.53;;;;;;;8.35;72.50;100247.95;1806879;79;21722;-55
2021/01/24 10:07:41;;;;;;;22.10;13.75;;;;;;;8.40;72.39;100246.09;1806615;79;21701;-54
2021/01/24 10:10:46;;;;;;;24.47;13.80;;;;;;;8.40;71.97;100246.09;1806589;79;21212;-54
2021/01/24 10:13:51;;;;;;;24.05;11.85;;;;;;;8.37;71.99;100245.05;1806786;79;21184;-54
2021/01/24 10:16:56;;;;;;;19.10;10.80;;;;;;;8.38;72.12;100239.93;1807053;79;21300;-55
2021/01/24 10:20:01;;;;;;;17.70;10.38;;;;;;;8.43;71.87;100237.56;1807266;79;21279;-54
2021/01/24 10:23:06;;;;;;;18.40;10.25;;;;;;;8.42;71.81;100229.05;1807575;79;21185;-55
2021/01/24 10:26:11;;;;;;;22.65;11.18;;;;;;;8.42;71.72;100223.59;1807610;79;21706;-55
2021/01/24 10:29:18;;;;;;;17.00;10.18;;;;;;;8.43;71.83;100225.29;1807326;79;21244;-54
2021/01/24 10:32:24;;;;;;;19.95;11.35;;;;;;;8.48;71.77;100217.47;1806841;79;21193;-55
2021/01/24 10:35:31;;;;;;;22.82;12.33;;;;;;;8.50;71.62;100213.54;1802083;79;21211;-55
2021/01/24 10:38:36;;;;;;;25.02;12.85;;;;;;;8.55;71.57;100204.85;1768950;80;21374;-55
2021/01/24 10:41:41;;;;;;;25.82;12.95;;;;;;;8.63;71.40;100200.78;1769364;81;21339;-55
2021/01/24 10:44:47;;;;;;;34.03;15.60;;;;;;;8.68;71.25;100196.54;1768931;79;21224;-54
2021/01/24 10:47:52;;;;;;;25.23;14.35;;;;;;;8.71;70.85;100197.56;1769664;80;21330;-55
2021/01/24 10:51:01;;;;;;;26.73;15.13;;;;;;;8.73;70.75;100186.48;1769975;79;21216;-55
2021/01/24 10:54:06;;;;;;;24.65;12.70;;;;;;;8.74;70.48;100187.67;1800306;78;21189;-56
2021/01/24 10:57:13;;;;;;;21.45;12.05;;;;;;;8.73;70.49;100180.52;1802472;79;21299;-55
2021/01/24 11:00:19;;;;;;;19.67;11.30;;;;;;;8.75;70.37;100166.70;1769111;80;21398;-56
2021/01/24 11:03:24;;;;;;;18.12;10.40;;;;;;;8.77;70.27;100170.09;1802857;79;21794;-54
2021/01/24 11:06:30;;;;;;;19.92;10.08;;;;;;;8.79;70.21;100166.69;1768777;80;21300;-56
2021/01/24 11:09:35;;;;;;;17.20;10.25;;;;;;;8.83;70.16;100169.44;1799891;79;21185;-53
2021/01/24 11:12:41;;;;;;;18.48;11.12;;;;;;;8.91;69.81;100166.17;1768112;81;21197;-56
2021/01/24 11:15:48;;;;;;;17.62;10.40;;;;;;;8.94;69.54;100156.81;1750635;80;21294;-53
2021/01/24 11:18:54;;;;;;;19.87;12.25;;;;;;;9.00;69.43;100147.43;1774513;80;21871;-54
2021/01/24 11:21:59;;;;;;;18.73;10.63;;;;;;;9.04;69.15;100147.41;1779980;80;21342;-54
2021/01/24 11:25:07;;;;;;;20.02;11.50;;;;;;;9.09;69.01;100133.24;1780299;80;21255;-54
2021/01/24 11:28:15;;;;;;;18.87;10.90;;;;;;;9.11;68.89;100124.38;1778809;79;21315;-57
2021/01/24 11:31:20;;;;;;;18.35;10.75;;;;;;;9.16;68.69;100125.22;1776839;79;21712;-54
2021/01/24 11:34:28;;;;;;;16.00;10.08;;;;;;;9.09;68.44;100123.19;1786835;79;21621;-54
2021/01/24 11:37:33;;;;;;;19.17;10.68;;;;;;;9.10;68.56;100126.23;1754210;79;21200;-54
2021/01/24 11:40:39;;;;;;;17.27;11.12;;;;;;;9.11;68.58;100127.10;1745445;81;21244;-55
2021/01/24 11:43:45;;;;;;;22.77;11.93;;;;;;;9.08;68.51;100127.45;1773308;80;21741;-54
2021/01/24 11:46:49;;;;;;;15.55;10.43;;;;;;;9.05;68.64;100121.80;1749543;81;21752;-54
2021/01/24 11:49:55;;;;;;;17.52;9.95;;;;;;;9.05;68.56;100119.61;1748693;81;21213;-54
2021/01/24 11:53:03;;;;;;;20.68;10.85;;;;;;;9.02;68.56;100115.33;1766745;80;21628;-55
2021/01/24 11:56:10;;;;;;;18.00;9.73;;;;;;;8.99;68.52;100118.41;1782514;80;21818;-54
2021/01/24 11:59:20;;;;;;;18.30;10.58;;;;;;;8.95;68.63;100115.69;1782626;79;21910;-54
2021/01/24 12:02:25;;;;;;;17.40;10.32;;;;;;;8.96;68.63;100117.89;1752938;82;21188;-54
2021/01/24 12:05:30;;;;;;;17.20;9.00;;;;;;;8.95;68.53;100112.96;1777575;80;21751;-54
2021/01/24 12:08:36;;;;;;;19.77;10.68;;;;;;;8.93;68.31;100105.95;1777819;80;21398;-55
2021/01/24 12:11:41;;;;;;;21.20;10.32;;;;;;;8.88;68.42;100099.66;1803766;79;21394;-55
2021/01/24 12:14:48;;;;;;;17.07;10.15;;;;;;;8.89;68.46;100110.06;1778395;79;21216;-55
2021/01/24 12:17:53;;;;;;;16.65;9.45;;;;;;;8.89;68.56;100101.37;1778710;79;21292;-55
2021/01/24 12:20:59;;;;;;;22.13;10.18;;;;;;;8.91;68.40;100106.66;1775961;79;21585;-55
2021/01/24 12:24:04;;;;;;;18.95;9.63;;;;;;;8.89;68.29;100108.70;1781785;79;21347;-55
2021/01/24 12:27:10;;;;;;;17.60;10.10;;;;;;;8.89;68.29;100114.16;1807843;79;21326;-55
2021/01/24 12:30:16;;;;;;;16.75;9.15;;;;;;;8.91;68.15;100124.41;1808410;78;21674;-55
2021/01/24 12:33:20;;;;;;;16.82;9.15;;;;;;;8.91;67.98;100127.13;1808247;79;21289;-54
2021/01/24 12:36:26;;;;;;;19.62;9.48;;;;;;;8.85;67.70;100131.38;1804307;79;21749;-54
2021/01/24 12:39:32;;;;;;;16.97;9.35;;;;;;;8.81;67.78;100138.72;1808151;79;21255;-54
2021/01/24 12:42:37;;;;;;;17.95;9.00;;;;;;;8.80;67.78;100135.67;1807877;79;21192;-54
2021/01/24 12:45:43;;;;;;;18.07;9.68;;;;;;;8.78;67.69;100125.42;1807790;79;21667;-54
2021/01/24 12:48:48;;;;;;;22.45;10.82;;;;;;;8.75;67.84;100115.69;1808715;79;21833;-54
2021/01/24 12:51:56;;;;;;;17.27;9.53;;;;;;;8.72;67.85;100114.66;1809089;79;21216;-55
2021/01/24 12:55:03;;;;;;;16.12;9.10;;;;;;;8.68;67.96;100116.05;1806056;78;21850;-55
2021/01/24 12:58:09;;;;;;;15.70;9.30;;;;;;;8.64;68.11;100121.48;1810102;79;21228;-54
2021/01/24 13:01:17;;;;;;;19.55;9.85;;;;;;;8.60;68.22;100121.99;1810056;79;21371;-54
2021/01/24 13:04:24;;;;;;;17.73;9.23;;;;;;;8.58;68.31;100119.94;1810054;79;21421;-54
2021/01/24 13:07:32;;;;;;;18.42;10.08;;;;;;;8.55;68.41;100116.19;1809963;79;21351;-55
2021/01/24 13:10:38;;;;;;;18.10;10.25;;;;;;;8.55;68.48;100123.88;1810074;78;21389;-55
2021/01/24 13:13:44;;;;;;;18.40;10.55;;;;;;;8.55;68.41;100136.65;1810109;79;21374;-54
2021/01/24 13:16:51;;;;;;;17.05;9.60;;;;;;;8.53;68.54;100128.64;1810108;79;21475;-54
2021/01/24 13:19:56;;;;;;;15.15;9.50;;;;;;;8.53;68.57;100134.09;1810364;79;21358;-54
2021/01/24 13:23:04;;;;;;;22.87;11.53;;;;;;;8.51;68.58;100132.06;1810019;79;21390;-54
2021/01/24 13:26:09;;;;;;;24.92;10.82;;;;;;;8.49;68.46;100125.05;1810194;79;21722;-54
2021/01/24 13:29:15;;;;;;;21.40;11.08;;;;;;;8.45;68.23;100131.89;1810285;79;21224;-54
2021/01/24 13:32:20;;;;;;;18.17;11.12;;;;;;;8.40;68.05;100120.62;1810211;79;21350;-55
2021/01/24 13:35:26;;;;;;;20.10;9.58;;;;;;;8.36;68.03;100132.37;1810092;78;21335;-55
2021/01/24 13:38:32;;;;;;;15.65;8.58;;;;;;;8.35;68.05;100133.41;1789595;79;21335;-55
2021/01/24 13:41:38;;;;;;;14.73;8.30;;;;;;;8.31;68.15;100125.20;1752663;82;21870;-56
2021/01/24 13:44:47;;;;;;;14.30;8.13;;;;;;;8.30;68.23;100126.73;1808454;79;21220;-55
2021/01/24 13:47:52;;;;;;;13.55;7.05;;;;;;;8.27;68.45;100124.34;1728768;82;21227;-55
2021/01/24 13:50:59;;;;;;;15.10;7.87;;;;;;;8.24;68.41;100125.55;1808502;79;21276;-55
2021/01/24 13:54:06;;;;;;;15.65;7.05;;;;;;;8.20;68.45;100125.48;1807922;79;21785;-54
2021/01/24 13:57:15;;;;;;;17.27;7.70;;;;;;;8.14;68.61;100125.30;1791433;79;21757;-54
2021/01/24 14:00:21;;;;;;;20.43;8.45;;;;;;;8.10;68.84;100120.71;1789723;80;21772;-54
2021/01/24 14:03:29;;;;;;;16.95;8.35;;;;;;;8.07;69.06;100114.20;1745408;82;21197;-55
2021/01/24 14:06:33;;;;;;;20.90;7.87;;;;;;;8.01;69.21;100121.69;1789063;80;21710;-54
2021/01/24 14:09:39;;;;;;;16.50;8.65;;;;;;;7.96;69.37;100112.31;1789355;80;21752;-55
2021/01/24 14:12:45;;;;;;;15.15;7.92;;;;;;;7.95;69.52;100121.48;1745568;82;21205;-54
2021/01/24 14:15:50;;;;;;;15.93;7.70;;;;;;;7.95;69.59;100117.41;1799153;79;21423;-55
2021/01/24 14:18:56;;;;;;;17.40;8.35;;;;;;;7.92;69.57;100119.09;1799828;79;21204;-55
2021/01/24 14:22:03;;;;;;;16.27;8.33;;;;;;;7.87;69.60;100118.73;1799877;79;21563;-55